sensor_id;sensor_type;location;lat;lon;timestamp;temperature;humidity
58568;DHT22;44354;46.192;-1.076;2022-08-11T00:01:49;22.50;1.00
58568;DHT22;44354;46.192;-1.076;2022-08-11T00:04:17;22.40;1.00
58568;DHT22;44354;46.192;-1.076;2022-08-11T00:06:44;22.40;1.00
58568;DHT22;44354;46.192;-1.076;2022-08-11T00:09:18;22.40;1.00
58568;DHT22;44354;46.192;-1.076;2022-08-11T00:11:48;22.30;1.00
58568;DHT22;44354;46.192;-1.076;2022-08-11T00:17:03;22.30;1.00
58568;DHT22;44354;46.192;-1.076;2022-08-11T00:19:32;22.20;1.00
58568;DHT22;44354;46.192;-1.076;2022-08-11T00:21:59;22.20;1.00
58568;DHT22;44354;46.192;-1.076;2022-08-11T00:24:32;22.10;1.00
58568;DHT22;44354;46.192;-1.076;2022-08-11T00:26:59;22.10;1.00
58568;DHT22;44354;46.192;-1.076;2022-08-11T00:29:25;22.10;1.00
58568;DHT22;44354;46.192;-1.076;2022-08-11T00:31:54;22.10;1.00
58568;DHT22;44354;46.192;-1.076;2022-08-11T00:34:25;22.00;1.00
58568;DHT22;44354;46.192;-1.076;2022-08-11T00:37:02;22.00;1.00
58568;DHT22;44354;46.192;-1.076;2022-08-11T00:39:30;21.90;1.00
58568;DHT22;44354;46.192;-1.076;2022-08-11T00:42:08;21.90;1.00
58568;DHT22;44354;46.192;-1.076;2022-08-11T00:45:02;21.90;1.00
58568;DHT22;44354;46.192;-1.076;2022-08-11T00:50:24;21.90;1.00
58568;DHT22;44354;46.192;-1.076;2022-08-11T01:15:51;21.50;1.00
58568;DHT22;44354;46.192;-1.076;2022-08-11T01:45:47;21.20;1.00
58568;DHT22;44354;46.192;-1.076;2022-08-11T01:48:36;21.20;1.00
58568;DHT22;44354;46.192;-1.076;2022-08-11T01:59:28;21.00;1.00
58568;DHT22;44354;46.192;-1.076;2022-08-11T02:16:27;20.80;1.00
58568;DHT22;44354;46.192;-1.076;2022-08-11T02:25:30;20.70;1.00
58568;DHT22;44354;46.192;-1.076;2022-08-11T02:30:40;20.60;1.00
58568;DHT22;44354;46.192;-1.076;2022-08-11T02:33:33;20.60;1.00
58568;DHT22;44354;46.192;-1.076;2022-08-11T02:36:09;20.50;1.00
58568;DHT22;44354;46.192;-1.076;2022-08-11T02:44:12;20.50;1.00
58568;DHT22;44354;46.192;-1.076;2022-08-11T02:46:55;20.40;1.00
58568;DHT22;44354;46.192;-1.076;2022-08-11T02:49:59;20.40;1.00
58568;DHT22;44354;46.192;-1.076;2022-08-11T02:52:40;20.40;1.00
58568;DHT22;44354;46.192;-1.076;2022-08-11T02:55:16;20.40;1.00
58568;DHT22;44354;46.192;-1.076;2022-08-11T02:57:53;20.40;1.00
58568;DHT22;44354;46.192;-1.076;2022-08-11T03:00:24;20.30;1.00
58568;DHT22;44354;46.192;-1.076;2022-08-11T03:08:52;20.20;1.00
58568;DHT22;44354;46.192;-1.076;2022-08-11T03:11:48;20.20;1.00
58568;DHT22;44354;46.192;-1.076;2022-08-11T03:18:23;20.10;1.00
58568;DHT22;44354;46.192;-1.076;2022-08-11T03:21:19;20.00;1.00
58568;DHT22;44354;46.192;-1.076;2022-08-11T03:24:05;20.00;1.00
58568;DHT22;44354;46.192;-1.076;2022-08-11T03:34:51;19.70;1.00
58568;DHT22;44354;46.192;-1.076;2022-08-11T03:37:59;19.70;1.00
58568;DHT22;44354;46.192;-1.076;2022-08-11T03:43:47;19.70;1.00
58568;DHT22;44354;46.192;-1.076;2022-08-11T03:52:15;19.60;1.00
58568;DHT22;44354;46.192;-1.076;2022-08-11T04:32:35;19.10;1.00
58568;DHT22;44354;46.192;-1.076;2022-08-11T04:35:21;19.00;1.00
58568;DHT22;44354;46.192;-1.076;2022-08-11T04:38:11;19.00;1.00
58568;DHT22;44354;46.192;-1.076;2022-08-11T05:00:32;18.80;1.00
58568;DHT22;44354;46.192;-1.076;2022-08-11T05:06:36;18.60;1.00
58568;DHT22;44354;46.192;-1.076;2022-08-11T05:09:03;18.60;1.00
58568;DHT22;44354;46.192;-1.076;2022-08-11T05:14:26;18.40;1.00
58568;DHT22;44354;46.192;-1.076;2022-08-11T05:17:11;18.40;1.00
58568;DHT22;44354;46.192;-1.076;2022-08-11T05:19:57;18.40;1.00
58568;DHT22;44354;46.192;-1.076;2022-08-11T05:22:47;18.40;1.00
58568;DHT22;44354;46.192;-1.076;2022-08-11T05:25:34;18.40;1.00
58568;DHT22;44354;46.192;-1.076;2022-08-11T05:28:34;18.40;1.00
58568;DHT22;44354;46.192;-1.076;2022-08-11T05:31:25;18.40;1.00
58568;DHT22;44354;46.192;-1.076;2022-08-11T05:34:11;18.40;1.00
58568;DHT22;44354;46.192;-1.076;2022-08-11T05:37:06;18.40;1.00
58568;DHT22;44354;46.192;-1.076;2022-08-11T05:39:44;18.40;1.00
58568;DHT22;44354;46.192;-1.076;2022-08-11T05:42:31;18.40;1.00
58568;DHT22;44354;46.192;-1.076;2022-08-11T05:45:17;18.40;1.00
58568;DHT22;44354;46.192;-1.076;2022-08-11T05:48:02;18.50;1.00
58568;DHT22;44354;46.192;-1.076;2022-08-11T05:50:56;18.50;1.00
58568;DHT22;44354;46.192;-1.076;2022-08-11T05:53:52;18.50;1.00
58568;DHT22;44354;46.192;-1.076;2022-08-11T05:56:48;18.50;1.00
58568;DHT22;44354;46.192;-1.076;2022-08-11T05:59:17;18.60;1.00
58568;DHT22;44354;46.192;-1.076;2022-08-11T06:01:43;18.50;1.00
58568;DHT22;44354;46.192;-1.076;2022-08-11T06:04:22;18.50;1.00
58568;DHT22;44354;46.192;-1.076;2022-08-11T06:09:35;18.60;1.00
58568;DHT22;44354;46.192;-1.076;2022-08-11T06:12:15;18.70;1.00
58568;DHT22;44354;46.192;-1.076;2022-08-11T06:14:42;18.80;1.00
58568;DHT22;44354;46.192;-1.076;2022-08-11T06:17:10;18.80;1.00
58568;DHT22;44354;46.192;-1.076;2022-08-11T06:19:41;18.90;1.00
58568;DHT22;44354;46.192;-1.076;2022-08-11T06:22:09;19.00;1.00
58568;DHT22;44354;46.192;-1.076;2022-08-11T06:24:38;19.10;1.00
58568;DHT22;44354;46.192;-1.076;2022-08-11T06:27:05;19.20;1.00
58568;DHT22;44354;46.192;-1.076;2022-08-11T06:29:36;19.30;1.00
58568;DHT22;44354;46.192;-1.076;2022-08-11T06:32:05;19.50;1.00
58568;DHT22;44354;46.192;-1.076;2022-08-11T06:37:22;19.80;1.00
58568;DHT22;44354;46.192;-1.076;2022-08-11T06:48:02;20.50;1.00
58568;DHT22;44354;46.192;-1.076;2022-08-11T06:50:31;20.60;1.00
58568;DHT22;44354;46.192;-1.076;2022-08-11T06:53:18;20.70;1.00
58568;DHT22;44354;46.192;-1.076;2022-08-11T06:55:45;20.80;1.00
58568;DHT22;44354;46.192;-1.076;2022-08-11T06:58:34;20.90;1.00
58568;DHT22;44354;46.192;-1.076;2022-08-11T07:02:00;21.10;1.00
58568;DHT22;44354;46.192;-1.076;2022-08-11T07:04:31;21.20;1.00
58568;DHT22;44354;46.192;-1.076;2022-08-11T07:10:52;21.50;1.00
58568;DHT22;44354;46.192;-1.076;2022-08-11T07:13:42;21.70;1.00
58568;DHT22;44354;46.192;-1.076;2022-08-11T07:16:29;21.80;1.00
58568;DHT22;44354;46.192;-1.076;2022-08-11T07:19:07;21.90;1.00
58568;DHT22;44354;46.192;-1.076;2022-08-11T07:21:54;22.00;1.00
58568;DHT22;44354;46.192;-1.076;2022-08-11T07:24:57;22.20;1.00
58568;DHT22;44354;46.192;-1.076;2022-08-11T07:27:45;22.30;1.00
58568;DHT22;44354;46.192;-1.076;2022-08-11T07:30:31;22.50;1.00
58568;DHT22;44354;46.192;-1.076;2022-08-11T07:33:00;22.70;1.00
58568;DHT22;44354;46.192;-1.076;2022-08-11T07:35:52;22.80;1.00
58568;DHT22;44354;46.192;-1.076;2022-08-11T07:38:26;23.00;1.00
58568;DHT22;44354;46.192;-1.076;2022-08-11T07:41:15;23.20;1.00
58568;DHT22;44354;46.192;-1.076;2022-08-11T07:43:42;23.40;1.00
58568;DHT22;44354;46.192;-1.076;2022-08-11T07:46:10;23.70;1.00
58568;DHT22;44354;46.192;-1.076;2022-08-11T07:48:55;23.90;1.00
58568;DHT22;44354;46.192;-1.076;2022-08-11T07:51:42;24.00;1.00
58568;DHT22;44354;46.192;-1.076;2022-08-11T07:54:27;24.20;1.00
58568;DHT22;44354;46.192;-1.076;2022-08-11T07:56:53;24.40;1.00
58568;DHT22;44354;46.192;-1.076;2022-08-11T07:59:20;24.50;1.00
58568;DHT22;44354;46.192;-1.076;2022-08-11T08:02:05;24.70;1.00
58568;DHT22;44354;46.192;-1.076;2022-08-11T08:04:50;24.90;1.00
58568;DHT22;44354;46.192;-1.076;2022-08-11T08:07:36;25.20;1.00
58568;DHT22;44354;46.192;-1.076;2022-08-11T08:10:21;25.50;1.00
58568;DHT22;44354;46.192;-1.076;2022-08-11T08:13:06;25.70;1.00
58568;DHT22;44354;46.192;-1.076;2022-08-11T08:15:52;25.90;1.00
58568;DHT22;44354;46.192;-1.076;2022-08-11T08:18:37;26.10;1.00
58568;DHT22;44354;46.192;-1.076;2022-08-11T08:21:05;26.40;1.00
58568;DHT22;44354;46.192;-1.076;2022-08-11T08:23:45;26.60;1.00
58568;DHT22;44354;46.192;-1.076;2022-08-11T08:26:15;26.80;1.00
58568;DHT22;44354;46.192;-1.076;2022-08-11T08:29:01;27.10;1.00
58568;DHT22;44354;46.192;-1.076;2022-08-11T08:31:47;27.00;1.00
58568;DHT22;44354;46.192;-1.076;2022-08-11T08:34:14;27.30;1.00
58568;DHT22;44354;46.192;-1.076;2022-08-11T08:36:48;27.50;1.00
58568;DHT22;44354;46.192;-1.076;2022-08-11T08:39:18;27.70;1.00
58568;DHT22;44354;46.192;-1.076;2022-08-11T08:41:46;27.80;1.00
58568;DHT22;44354;46.192;-1.076;2022-08-11T08:44:16;28.10;1.00
58568;DHT22;44354;46.192;-1.076;2022-08-11T08:46:48;28.20;1.00
58568;DHT22;44354;46.192;-1.076;2022-08-11T08:49:17;28.30;1.00
58568;DHT22;44354;46.192;-1.076;2022-08-11T08:51:44;28.50;1.00
58568;DHT22;44354;46.192;-1.076;2022-08-11T08:54:16;28.60;1.00
58568;DHT22;44354;46.192;-1.076;2022-08-11T08:56:44;28.70;1.00
58568;DHT22;44354;46.192;-1.076;2022-08-11T08:59:13;28.80;1.00
58568;DHT22;44354;46.192;-1.076;2022-08-11T09:01:47;29.10;1.00
58568;DHT22;44354;46.192;-1.076;2022-08-11T09:04:15;29.40;1.00
58568;DHT22;44354;46.192;-1.076;2022-08-11T09:06:43;29.60;1.00
58568;DHT22;44354;46.192;-1.076;2022-08-11T09:09:09;29.50;1.00
58568;DHT22;44354;46.192;-1.076;2022-08-11T09:11:41;29.70;1.00
58568;DHT22;44354;46.192;-1.076;2022-08-11T09:14:26;29.90;1.00
58568;DHT22;44354;46.192;-1.076;2022-08-11T09:17:19;30.00;1.00
58568;DHT22;44354;46.192;-1.076;2022-08-11T09:19:46;30.10;1.00
58568;DHT22;44354;46.192;-1.076;2022-08-11T09:22:18;30.00;1.00
58568;DHT22;44354;46.192;-1.076;2022-08-11T09:25:05;30.10;1.00
58568;DHT22;44354;46.192;-1.076;2022-08-11T09:27:50;30.40;1.00
58568;DHT22;44354;46.192;-1.076;2022-08-11T09:30:18;30.50;1.00
58568;DHT22;44354;46.192;-1.076;2022-08-11T09:32:44;30.70;1.00
58568;DHT22;44354;46.192;-1.076;2022-08-11T09:35:10;30.80;99.90
58568;DHT22;44354;46.192;-1.076;2022-08-11T09:37:36;30.80;99.90
58568;DHT22;44354;46.192;-1.076;2022-08-11T09:40:22;30.80;99.90
58568;DHT22;44354;46.192;-1.076;2022-08-11T09:43:00;31.00;99.90
58568;DHT22;44354;46.192;-1.076;2022-08-11T09:45:51;31.40;99.90
58568;DHT22;44354;46.192;-1.076;2022-08-11T09:48:22;31.50;99.90
58568;DHT22;44354;46.192;-1.076;2022-08-11T09:50:58;31.90;99.90
58568;DHT22;44354;46.192;-1.076;2022-08-11T09:53:26;32.00;99.90
58568;DHT22;44354;46.192;-1.076;2022-08-11T09:55:52;32.10;99.90
58568;DHT22;44354;46.192;-1.076;2022-08-11T09:58:20;32.20;99.90
58568;DHT22;44354;46.192;-1.076;2022-08-11T10:00:48;32.20;99.90
58568;DHT22;44354;46.192;-1.076;2022-08-11T10:03:17;32.20;99.90
58568;DHT22;44354;46.192;-1.076;2022-08-11T10:05:55;32.50;99.90
58568;DHT22;44354;46.192;-1.076;2022-08-11T10:08:41;32.60;99.90
58568;DHT22;44354;46.192;-1.076;2022-08-11T10:11:15;32.70;99.90
58568;DHT22;44354;46.192;-1.076;2022-08-11T10:13:44;32.70;99.90
58568;DHT22;44354;46.192;-1.076;2022-08-11T10:16:33;32.90;99.90
58568;DHT22;44354;46.192;-1.076;2022-08-11T10:19:01;33.20;99.90
58568;DHT22;44354;46.192;-1.076;2022-08-11T10:23:58;33.30;99.90
58568;DHT22;44354;46.192;-1.076;2022-08-11T10:26:43;33.40;99.90
58568;DHT22;44354;46.192;-1.076;2022-08-11T10:29:32;33.50;99.90
58568;DHT22;44354;46.192;-1.076;2022-08-11T10:32:22;33.60;99.90
58568;DHT22;44354;46.192;-1.076;2022-08-11T10:35:08;33.90;99.90
58568;DHT22;44354;46.192;-1.076;2022-08-11T10:37:38;34.10;99.90
58568;DHT22;44354;46.192;-1.076;2022-08-11T10:40:06;34.10;99.90
58568;DHT22;44354;46.192;-1.076;2022-08-11T10:42:32;34.10;99.90
58568;DHT22;44354;46.192;-1.076;2022-08-11T10:45:17;34.20;99.90
58568;DHT22;44354;46.192;-1.076;2022-08-11T10:48:04;34.50;99.90
58568;DHT22;44354;46.192;-1.076;2022-08-11T10:50:31;34.40;99.90
58568;DHT22;44354;46.192;-1.076;2022-08-11T10:53:16;34.40;99.90
58568;DHT22;44354;46.192;-1.076;2022-08-11T10:56:03;34.40;99.90
58568;DHT22;44354;46.192;-1.076;2022-08-11T10:58:48;34.50;99.90
58568;DHT22;44354;46.192;-1.076;2022-08-11T11:01:21;34.50;99.90
58568;DHT22;44354;46.192;-1.076;2022-08-11T11:09:41;35.00;99.90
58568;DHT22;44354;46.192;-1.076;2022-08-11T11:12:24;35.20;99.90
58568;DHT22;44354;46.192;-1.076;2022-08-11T11:15:12;35.30;99.90
58568;DHT22;44354;46.192;-1.076;2022-08-11T11:18:02;35.20;99.90
58568;DHT22;44354;46.192;-1.076;2022-08-11T11:20:42;35.40;99.90
58568;DHT22;44354;46.192;-1.076;2022-08-11T11:23:20;35.40;99.90
58568;DHT22;44354;46.192;-1.076;2022-08-11T11:26:08;35.40;99.90
58568;DHT22;44354;46.192;-1.076;2022-08-11T11:34:00;35.70;99.90
58568;DHT22;44354;46.192;-1.076;2022-08-11T11:39:12;36.10;99.90
58568;DHT22;44354;46.192;-1.076;2022-08-11T11:41:38;35.90;99.90
58568;DHT22;44354;46.192;-1.076;2022-08-11T11:44:05;35.90;99.90
58568;DHT22;44354;46.192;-1.076;2022-08-11T11:46:31;36.10;99.90
58568;DHT22;44354;46.192;-1.076;2022-08-11T11:48:58;36.10;99.90
58568;DHT22;44354;46.192;-1.076;2022-08-11T11:51:31;36.20;99.90
58568;DHT22;44354;46.192;-1.076;2022-08-11T11:53:58;36.30;99.90
58568;DHT22;44354;46.192;-1.076;2022-08-11T11:56:24;36.50;99.90
58568;DHT22;44354;46.192;-1.076;2022-08-11T11:58:51;36.50;99.90
58568;DHT22;44354;46.192;-1.076;2022-08-11T12:01:36;36.70;99.90
58568;DHT22;44354;46.192;-1.076;2022-08-11T12:04:03;36.60;99.90
58568;DHT22;44354;46.192;-1.076;2022-08-11T12:06:31;36.80;99.90
58568;DHT22;44354;46.192;-1.076;2022-08-11T12:08:57;36.80;99.90
58568;DHT22;44354;46.192;-1.076;2022-08-11T12:11:25;36.70;99.90
58568;DHT22;44354;46.192;-1.076;2022-08-11T12:14:10;36.90;99.90
58568;DHT22;44354;46.192;-1.076;2022-08-11T12:16:40;36.80;99.90
58568;DHT22;44354;46.192;-1.076;2022-08-11T12:19:11;36.60;99.90
58568;DHT22;44354;46.192;-1.076;2022-08-11T12:21:38;36.70;99.90
58568;DHT22;44354;46.192;-1.076;2022-08-11T12:24:24;36.90;99.90
58568;DHT22;44354;46.192;-1.076;2022-08-11T12:27:09;37.00;99.90
58568;DHT22;44354;46.192;-1.076;2022-08-11T12:30:05;37.10;99.90
58568;DHT22;44354;46.192;-1.076;2022-08-11T12:32:34;37.10;99.90
58568;DHT22;44354;46.192;-1.076;2022-08-11T12:35:01;37.20;99.90
58568;DHT22;44354;46.192;-1.076;2022-08-11T12:37:32;37.20;99.90
58568;DHT22;44354;46.192;-1.076;2022-08-11T12:40:02;37.20;99.90
58568;DHT22;44354;46.192;-1.076;2022-08-11T12:42:47;37.30;99.90
58568;DHT22;44354;46.192;-1.076;2022-08-11T12:45:33;37.20;99.90
58568;DHT22;44354;46.192;-1.076;2022-08-11T12:48:07;37.10;99.90
58568;DHT22;44354;46.192;-1.076;2022-08-11T12:51:14;37.40;99.90
58568;DHT22;44354;46.192;-1.076;2022-08-11T12:56:25;37.50;99.90
58568;DHT22;44354;46.192;-1.076;2022-08-11T12:59:11;37.60;99.90
58568;DHT22;44354;46.192;-1.076;2022-08-11T13:01:57;37.70;99.90
58568;DHT22;44354;46.192;-1.076;2022-08-11T13:04:41;37.60;99.90
58568;DHT22;44354;46.192;-1.076;2022-08-11T13:07:27;37.90;99.90
58568;DHT22;44354;46.192;-1.076;2022-08-11T13:09:55;37.90;99.90
58568;DHT22;44354;46.192;-1.076;2022-08-11T13:12:25;37.80;99.90
58568;DHT22;44354;46.192;-1.076;2022-08-11T13:15:12;37.40;99.90
58568;DHT22;44354;46.192;-1.076;2022-08-11T13:17:39;37.30;99.90
58568;DHT22;44354;46.192;-1.076;2022-08-11T13:20:09;37.40;99.90
58568;DHT22;44354;46.192;-1.076;2022-08-11T13:22:41;37.30;99.90
58568;DHT22;44354;46.192;-1.076;2022-08-11T13:25:11;37.20;99.90
58568;DHT22;44354;46.192;-1.076;2022-08-11T13:27:39;37.50;99.90
58568;DHT22;44354;46.192;-1.076;2022-08-11T13:30:05;37.70;99.90
58568;DHT22;44354;46.192;-1.076;2022-08-11T13:32:50;37.70;99.90
58568;DHT22;44354;46.192;-1.076;2022-08-11T13:35:17;38.00;99.90
58568;DHT22;44354;46.192;-1.076;2022-08-11T13:37:45;38.00;99.90
58568;DHT22;44354;46.192;-1.076;2022-08-11T13:40:13;38.20;99.90
58568;DHT22;44354;46.192;-1.076;2022-08-11T13:42:41;38.10;99.90
58568;DHT22;44354;46.192;-1.076;2022-08-11T13:45:08;38.20;99.90
58568;DHT22;44354;46.192;-1.076;2022-08-11T13:47:38;38.30;99.90
58568;DHT22;44354;46.192;-1.076;2022-08-11T13:50:06;38.20;99.90
58568;DHT22;44354;46.192;-1.076;2022-08-11T13:52:33;38.00;99.90
58568;DHT22;44354;46.192;-1.076;2022-08-11T13:55:00;38.00;99.90
58568;DHT22;44354;46.192;-1.076;2022-08-11T13:57:29;38.00;99.90
58568;DHT22;44354;46.192;-1.076;2022-08-11T13:59:58;37.90;99.90
58568;DHT22;44354;46.192;-1.076;2022-08-11T14:02:36;38.00;99.90
58568;DHT22;44354;46.192;-1.076;2022-08-11T14:05:09;38.30;99.90
58568;DHT22;44354;46.192;-1.076;2022-08-11T14:07:45;38.20;99.90
58568;DHT22;44354;46.192;-1.076;2022-08-11T14:10:13;38.40;99.90
58568;DHT22;44354;46.192;-1.076;2022-08-11T14:12:42;38.20;99.90
58568;DHT22;44354;46.192;-1.076;2022-08-11T14:15:34;38.30;99.90
58568;DHT22;44354;46.192;-1.076;2022-08-11T14:18:10;38.30;99.90
58568;DHT22;44354;46.192;-1.076;2022-08-11T14:20:41;38.20;99.90
58568;DHT22;44354;46.192;-1.076;2022-08-11T14:23:31;38.30;99.90
58568;DHT22;44354;46.192;-1.076;2022-08-11T14:26:00;38.20;99.90
58568;DHT22;44354;46.192;-1.076;2022-08-11T14:28:44;38.30;99.90
58568;DHT22;44354;46.192;-1.076;2022-08-11T14:31:14;38.40;99.90
58568;DHT22;44354;46.192;-1.076;2022-08-11T14:33:44;38.40;99.90
58568;DHT22;44354;46.192;-1.076;2022-08-11T14:36:10;38.40;99.90
58568;DHT22;44354;46.192;-1.076;2022-08-11T14:38:38;38.20;99.90
58568;DHT22;44354;46.192;-1.076;2022-08-11T14:41:05;38.20;99.90
58568;DHT22;44354;46.192;-1.076;2022-08-11T14:43:51;38.40;99.90
58568;DHT22;44354;46.192;-1.076;2022-08-11T14:46:38;38.40;99.90
58568;DHT22;44354;46.192;-1.076;2022-08-11T14:49:42;38.60;99.90
58568;DHT22;44354;46.192;-1.076;2022-08-11T14:52:11;38.50;99.90
58568;DHT22;44354;46.192;-1.076;2022-08-11T14:54:46;38.20;99.90
58568;DHT22;44354;46.192;-1.076;2022-08-11T14:57:34;38.30;99.90
58568;DHT22;44354;46.192;-1.076;2022-08-11T15:00:02;37.90;99.90
58568;DHT22;44354;46.192;-1.076;2022-08-11T15:02:29;37.20;99.90
58568;DHT22;44354;46.192;-1.076;2022-08-11T15:05:14;37.30;99.90
58568;DHT22;44354;46.192;-1.076;2022-08-11T15:07:40;37.30;99.90
58568;DHT22;44354;46.192;-1.076;2022-08-11T15:10:08;37.10;99.90
58568;DHT22;44354;46.192;-1.076;2022-08-11T15:12:36;37.20;99.90
58568;DHT22;44354;46.192;-1.076;2022-08-11T15:15:05;37.00;99.90
58568;DHT22;44354;46.192;-1.076;2022-08-11T15:17:50;37.00;99.90
58568;DHT22;44354;46.192;-1.076;2022-08-11T15:20:19;36.90;99.90
58568;DHT22;44354;46.192;-1.076;2022-08-11T15:23:04;36.90;99.90
58568;DHT22;44354;46.192;-1.076;2022-08-11T15:25:54;37.00;99.90
58568;DHT22;44354;46.192;-1.076;2022-08-11T15:28:22;37.20;99.90
58568;DHT22;44354;46.192;-1.076;2022-08-11T15:31:21;37.30;99.90
58568;DHT22;44354;46.192;-1.076;2022-08-11T15:33:51;37.30;99.90
58568;DHT22;44354;46.192;-1.076;2022-08-11T15:36:37;37.10;99.90
58568;DHT22;44354;46.192;-1.076;2022-08-11T15:39:31;37.20;99.90
58568;DHT22;44354;46.192;-1.076;2022-08-11T15:42:25;37.30;99.90
58568;DHT22;44354;46.192;-1.076;2022-08-11T15:45:09;37.20;99.90
58568;DHT22;44354;46.192;-1.076;2022-08-11T15:47:59;37.20;99.90
58568;DHT22;44354;46.192;-1.076;2022-08-11T15:50:32;37.20;99.90
58568;DHT22;44354;46.192;-1.076;2022-08-11T15:53:02;37.10;99.90
58568;DHT22;44354;46.192;-1.076;2022-08-11T15:55:29;37.00;99.90
58568;DHT22;44354;46.192;-1.076;2022-08-11T15:57:58;37.00;99.90
58568;DHT22;44354;46.192;-1.076;2022-08-11T16:00:44;37.00;99.90
58568;DHT22;44354;46.192;-1.076;2022-08-11T16:03:38;37.20;99.90
58568;DHT22;44354;46.192;-1.076;2022-08-11T16:06:23;37.20;99.90
58568;DHT22;44354;46.192;-1.076;2022-08-11T16:08:50;37.10;99.90
58568;DHT22;44354;46.192;-1.076;2022-08-11T16:11:18;37.20;99.90
58568;DHT22;44354;46.192;-1.076;2022-08-11T16:13:45;37.20;99.90
58568;DHT22;44354;46.192;-1.076;2022-08-11T16:16:13;37.20;99.90
58568;DHT22;44354;46.192;-1.076;2022-08-11T16:19:00;37.20;99.90
58568;DHT22;44354;46.192;-1.076;2022-08-11T16:21:33;37.30;99.90
58568;DHT22;44354;46.192;-1.076;2022-08-11T16:24:00;37.30;99.90
58568;DHT22;44354;46.192;-1.076;2022-08-11T16:26:31;37.10;99.90
58568;DHT22;44354;46.192;-1.076;2022-08-11T16:28:59;37.20;99.90
58568;DHT22;44354;46.192;-1.076;2022-08-11T16:31:31;37.20;99.90
58568;DHT22;44354;46.192;-1.076;2022-08-11T16:33:59;37.10;99.90
58568;DHT22;44354;46.192;-1.076;2022-08-11T16:36:28;37.20;99.90
58568;DHT22;44354;46.192;-1.076;2022-08-11T16:39:31;37.30;99.90
58568;DHT22;44354;46.192;-1.076;2022-08-11T16:41:57;37.00;99.90
58568;DHT22;44354;46.192;-1.076;2022-08-11T16:44:41;36.80;99.90
58568;DHT22;44354;46.192;-1.076;2022-08-11T16:47:26;36.60;99.90
58568;DHT22;44354;46.192;-1.076;2022-08-11T16:49:53;36.80;99.90
58568;DHT22;44354;46.192;-1.076;2022-08-11T16:52:24;36.70;99.90
58568;DHT22;44354;46.192;-1.076;2022-08-11T16:54:51;36.80;99.90
58568;DHT22;44354;46.192;-1.076;2022-08-11T16:57:22;36.70;99.90
58568;DHT22;44354;46.192;-1.076;2022-08-11T17:00:07;36.50;99.90
58568;DHT22;44354;46.192;-1.076;2022-08-11T17:02:50;36.30;99.90
58568;DHT22;44354;46.192;-1.076;2022-08-11T17:05:41;36.10;99.90
58568;DHT22;44354;46.192;-1.076;2022-08-11T17:08:31;36.10;99.90
58568;DHT22;44354;46.192;-1.076;2022-08-11T17:11:18;36.00;99.90
58568;DHT22;44354;46.192;-1.076;2022-08-11T17:14:11;35.80;99.90
58568;DHT22;44354;46.192;-1.076;2022-08-11T17:16:38;35.60;99.90
58568;DHT22;44354;46.192;-1.076;2022-08-11T17:19:12;35.60;99.90
58568;DHT22;44354;46.192;-1.076;2022-08-11T17:21:46;35.70;99.90
58568;DHT22;44354;46.192;-1.076;2022-08-11T17:24:36;35.60;99.90
58568;DHT22;44354;46.192;-1.076;2022-08-11T17:27:04;35.40;99.90
58568;DHT22;44354;46.192;-1.076;2022-08-11T17:29:40;35.50;99.90
58568;DHT22;44354;46.192;-1.076;2022-08-11T17:32:12;35.50;99.90
58568;DHT22;44354;46.192;-1.076;2022-08-11T17:35:02;35.50;99.90
58568;DHT22;44354;46.192;-1.076;2022-08-11T17:37:48;35.40;99.90
58568;DHT22;44354;46.192;-1.076;2022-08-11T17:40:19;35.40;99.90
58568;DHT22;44354;46.192;-1.076;2022-08-11T17:42:54;35.30;99.90
58568;DHT22;44354;46.192;-1.076;2022-08-11T17:45:42;35.30;99.90
58568;DHT22;44354;46.192;-1.076;2022-08-11T17:48:28;35.20;99.90
58568;DHT22;44354;46.192;-1.076;2022-08-11T17:50:57;35.20;99.90
58568;DHT22;44354;46.192;-1.076;2022-08-11T17:53:28;35.10;99.90
58568;DHT22;44354;46.192;-1.076;2022-08-11T17:56:13;35.00;99.90
58568;DHT22;44354;46.192;-1.076;2022-08-11T17:58:59;34.90;99.90
58568;DHT22;44354;46.192;-1.076;2022-08-11T18:01:45;34.80;99.90
58568;DHT22;44354;46.192;-1.076;2022-08-11T18:04:14;34.80;99.90
58568;DHT22;44354;46.192;-1.076;2022-08-11T18:06:41;34.60;99.90
58568;DHT22;44354;46.192;-1.076;2022-08-11T18:09:12;34.60;99.90
58568;DHT22;44354;46.192;-1.076;2022-08-11T18:11:58;34.50;99.90
58568;DHT22;44354;46.192;-1.076;2022-08-11T18:14:48;34.40;99.90
58568;DHT22;44354;46.192;-1.076;2022-08-11T18:17:33;34.30;99.90
58568;DHT22;44354;46.192;-1.076;2022-08-11T18:20:18;34.20;99.90
58568;DHT22;44354;46.192;-1.076;2022-08-11T18:23:06;34.00;99.90
58568;DHT22;44354;46.192;-1.076;2022-08-11T18:25:52;34.00;99.90
58568;DHT22;44354;46.192;-1.076;2022-08-11T18:28:44;33.90;99.90
58568;DHT22;44354;46.192;-1.076;2022-08-11T18:31:32;33.60;99.90
58568;DHT22;44354;46.192;-1.076;2022-08-11T18:34:23;33.50;99.90
58568;DHT22;44354;46.192;-1.076;2022-08-11T18:37:34;33.30;99.90
58568;DHT22;44354;46.192;-1.076;2022-08-11T18:40:21;32.80;99.90
58568;DHT22;44354;46.192;-1.076;2022-08-11T18:43:09;32.40;99.90
58568;DHT22;44354;46.192;-1.076;2022-08-11T18:46:05;32.30;99.90
58568;DHT22;44354;46.192;-1.076;2022-08-11T18:48:52;32.10;99.90
58568;DHT22;44354;46.192;-1.076;2022-08-11T18:51:39;32.00;99.90
58568;DHT22;44354;46.192;-1.076;2022-08-11T18:54:25;32.00;99.90
58568;DHT22;44354;46.192;-1.076;2022-08-11T18:57:10;32.00;99.90
58568;DHT22;44354;46.192;-1.076;2022-08-11T18:59:59;32.00;99.90
58568;DHT22;44354;46.192;-1.076;2022-08-11T19:02:45;31.90;99.90
58568;DHT22;44354;46.192;-1.076;2022-08-11T19:05:31;31.80;99.90
58568;DHT22;44354;46.192;-1.076;2022-08-11T19:08:17;31.80;99.90
58568;DHT22;44354;46.192;-1.076;2022-08-11T19:11:03;31.70;99.90
58568;DHT22;44354;46.192;-1.076;2022-08-11T19:13:49;31.60;99.90
58568;DHT22;44354;46.192;-1.076;2022-08-11T19:16:34;31.40;99.90
58568;DHT22;44354;46.192;-1.076;2022-08-11T19:19:19;31.20;99.90
58568;DHT22;44354;46.192;-1.076;2022-08-11T19:22:04;31.10;99.90
58568;DHT22;44354;46.192;-1.076;2022-08-11T19:24:50;30.90;99.90
58568;DHT22;44354;46.192;-1.076;2022-08-11T19:27:37;30.90;99.90
58568;DHT22;44354;46.192;-1.076;2022-08-11T19:30:22;30.70;99.90
58568;DHT22;44354;46.192;-1.076;2022-08-11T19:33:07;30.50;99.90
58568;DHT22;44354;46.192;-1.076;2022-08-11T19:35:51;30.40;99.90
58568;DHT22;44354;46.192;-1.076;2022-08-11T19:38:36;30.30;99.90
58568;DHT22;44354;46.192;-1.076;2022-08-11T19:41:24;30.20;99.90
58568;DHT22;44354;46.192;-1.076;2022-08-11T19:44:09;30.10;99.90
58568;DHT22;44354;46.192;-1.076;2022-08-11T19:46:55;29.90;99.90
58568;DHT22;44354;46.192;-1.076;2022-08-11T19:49:42;29.70;99.90
58568;DHT22;44354;46.192;-1.076;2022-08-11T19:52:29;29.70;99.90
58568;DHT22;44354;46.192;-1.076;2022-08-11T19:55:15;29.60;99.90
58568;DHT22;44354;46.192;-1.076;2022-08-11T19:58:01;29.50;99.90
58568;DHT22;44354;46.192;-1.076;2022-08-11T20:00:46;29.40;99.90
58568;DHT22;44354;46.192;-1.076;2022-08-11T20:03:39;29.20;99.90
58568;DHT22;44354;46.192;-1.076;2022-08-11T20:06:26;29.10;99.90
58568;DHT22;44354;46.192;-1.076;2022-08-11T20:09:11;29.00;99.90
58568;DHT22;44354;46.192;-1.076;2022-08-11T20:11:57;28.90;99.90